Time;durP1;ratioP1;P1;durP2;ratioP2;P2;SDS_P1;SDS_P2;PMS_P1;PMS_P2;Temp;Humidity;BMP_temperature;BMP_pressure;BME280_temperature;BME280_humidity;BME280_pressure;Samples;Min_cycle;Max_cycle;Signal;HPM_P1;HPM_P2
2022/03/19 00:02:25;;;;;;;43.42;13.27;;;8.30;99.90;;;;;;5031277;28;20029;-60
2022/03/19 00:04:51;;;;;;;35.15;12.98;;;8.30;99.90;;;;;;5031563;28;20044;-59
2022/03/19 00:07:17;;;;;;;41.78;13.13;;;8.30;99.90;;;;;;5029744;28;20108;-59
2022/03/19 00:09:43;;;;;;;52.83;19.63;;;8.20;99.90;;;;;;5031536;28;20160;-59
2022/03/19 00:12:12;;;;;;;40.13;15.65;;;8.20;99.90;;;;;;5030774;28;20367;-57
2022/03/19 00:14:37;;;;;;;41.38;14.80;;;8.10;99.90;;;;;;5026874;28;20025;-57
2022/03/19 00:17:03;;;;;;;35.30;14.25;;;8.20;99.90;;;;;;5030251;28;20044;-61
2022/03/19 00:19:29;;;;;;;45.75;14.43;;;8.10;99.90;;;;;;5031448;28;20083;-58
2022/03/19 00:21:55;;;;;;;43.67;14.70;;;8.00;99.90;;;;;;5031261;28;20037;-60
2022/03/19 00:24:21;;;;;;;43.05;15.13;;;8.00;99.90;;;;;;5030563;28;20375;-57
2022/03/19 00:26:46;;;;;;;41.92;15.23;;;8.00;99.90;;;;;;5030787;28;20083;-53
2022/03/19 00:29:12;;;;;;;41.92;14.77;;;8.00;99.90;;;;;;5030472;28;20044;-54
2022/03/19 00:31:37;;;;;;;34.70;13.95;;;8.00;99.90;;;;;;5031471;28;20034;-53
2022/03/19 00:34:03;;;;;;;47.05;15.05;;;8.00;99.90;;;;;;5030081;28;20060;-53
2022/03/19 00:36:30;;;;;;;34.95;13.98;;;7.80;99.90;;;;;;5029731;28;20030;-54
2022/03/19 00:38:56;;;;;;;45.67;14.40;;;7.80;99.90;;;;;;5030068;28;20418;-55
2022/03/19 00:41:21;;;;;;;41.60;15.45;;;7.80;99.90;;;;;;5031001;28;20116;-54
2022/03/19 00:43:47;;;;;;;42.03;14.65;;;7.70;99.90;;;;;;5030376;28;20375;-54
2022/03/19 00:46:15;;;;;;;41.08;14.50;;;7.70;99.90;;;;;;5029936;28;20121;-56
2022/03/19 00:48:41;;;;;;;41.83;13.48;;;7.70;99.90;;;;;;5028298;28;20042;-59
2022/03/19 00:51:08;;;;;;;34.35;13.57;;;7.60;99.90;;;;;;5030366;28;20460;-59
2022/03/19 00:53:34;;;;;;;39.78;12.70;;;7.60;99.90;;;;;;5009432;28;20441;-59
2022/03/19 00:56:01;;;;;;;39.60;12.23;;;7.60;99.90;;;;;;5027329;28;20109;-57
2022/03/19 00:58:26;;;;;;;39.85;12.05;;;7.50;99.90;;;;;;5030024;28;20079;-59
2022/03/19 01:00:52;;;;;;;30.38;11.02;;;7.60;99.90;;;;;;5030848;28;20041;-60
2022/03/19 01:03:18;;;;;;;38.28;11.55;;;7.50;99.90;;;;;;5029467;28;20460;-58
2022/03/19 01:05:43;;;;;;;32.58;10.43;;;7.50;99.90;;;;;;5030482;28;20029;-56
2022/03/19 01:08:11;;;;;;;33.25;10.30;;;7.60;99.90;;;;;;5030285;28;20067;-56
2022/03/19 01:10:38;;;;;;;30.50;9.07;;;7.50;99.90;;;;;;5022753;28;20133;-55
2022/03/19 01:13:06;;;;;;;30.77;9.90;;;7.40;99.90;;;;;;5030935;28;20029;-53
2022/03/19 01:15:32;;;;;;;35.67;10.45;;;7.40;99.90;;;;;;5029680;28;20036;-58
2022/03/19 01:17:58;;;;;;;32.13;9.63;;;7.40;99.90;;;;;;5030590;28;20026;-58
2022/03/19 01:20:24;;;;;;;40.00;10.80;;;7.40;99.90;;;;;;5029465;28;20112;-58
2022/03/19 01:22:51;;;;;;;35.38;9.50;;;7.30;99.90;;;;;;5030504;28;20079;-55
2022/03/19 01:25:18;;;;;;;32.30;8.75;;;7.30;99.90;;;;;;5028819;28;20033;-54
2022/03/19 01:27:45;;;;;;;37.97;9.45;;;7.20;99.90;;;;;;5030702;28;20030;-55
2022/03/19 01:30:14;;;;;;;30.60;8.40;;;7.30;99.90;;;;;;5029447;28;20033;-56
2022/03/19 01:32:42;;;;;;;28.77;8.88;;;7.30;99.90;;;;;;5030457;28;20075;-53
2022/03/19 01:35:09;;;;;;;36.42;8.88;;;7.30;99.90;;;;;;5026494;28;20048;-54
2022/03/19 01:37:35;;;;;;;32.67;8.35;;;7.30;99.90;;;;;;5026549;28;20106;-59
2022/03/19 01:40:02;;;;;;;26.40;7.72;;;7.30;99.90;;;;;;5014848;28;20021;-58
2022/03/19 01:42:32;;;;;;;35.92;8.60;;;7.30;99.90;;;;;;5013898;28;20021;-58
2022/03/19 01:44:59;;;;;;;34.85;8.40;;;7.20;99.90;;;;;;5029798;28;20100;-57
2022/03/19 01:47:29;;;;;;;27.25;7.15;;;7.20;99.90;;;;;;5027986;28;20043;-60
2022/03/19 01:49:56;;;;;;;27.23;6.75;;;7.20;99.90;;;;;;5028911;28;20123;-61
2022/03/19 01:52:23;;;;;;;28.98;7.28;;;7.20;99.90;;;;;;5028705;28;20025;-59
2022/03/19 01:54:51;;;;;;;24.67;7.40;;;7.20;99.90;;;;;;5029648;28;20025;-60
2022/03/19 01:57:23;;;;;;;35.63;7.63;;;7.20;99.90;;;;;;5028521;28;20025;-53
2022/03/19 01:59:50;;;;;;;27.92;7.28;;;7.20;99.90;;;;;;5029681;28;20029;-53
2022/03/19 02:02:16;;;;;;;34.90;8.23;;;7.20;99.90;;;;;;5028795;28;20302;-58
2022/03/19 02:04:44;;;;;;;33.28;7.50;;;7.20;99.90;;;;;;5029507;28;20164;-60
2022/03/19 02:07:12;;;;;;;25.92;6.78;;;7.10;99.90;;;;;;5026875;28;20121;-59
2022/03/19 02:09:39;;;;;;;29.75;7.30;;;7.10;99.90;;;;;;5029328;28;20037;-59
2022/03/19 02:12:06;;;;;;;21.15;6.78;;;7.10;99.90;;;;;;5028193;28;20108;-59
2022/03/19 02:14:35;;;;;;;24.17;7.18;;;7.00;99.90;;;;;;5028832;28;20188;-58
2022/03/19 02:17:03;;;;;;;26.40;6.55;;;7.00;99.90;;;;;;5028441;28;20026;-59
2022/03/19 02:19:28;;;;;;;30.63;7.00;;;7.00;99.90;;;;;;5028812;28;20034;-58
2022/03/19 02:21:54;;;;;;;29.25;6.53;;;7.00;99.90;;;;;;5028954;28;20486;-58
2022/03/19 02:27:04;;;;;;;30.25;7.57;;;6.90;99.90;;;;;;5028709;28;20040;-58
2022/03/19 02:29:30;;;;;;;29.38;7.18;;;6.80;99.90;;;;;;5028782;28;20395;-60
2022/03/19 02:32:02;;;;;;;29.52;7.00;;;6.80;99.90;;;;;;5028739;28;20051;-60
2022/03/19 02:34:29;;;;;;;31.45;8.32;;;6.80;99.90;;;;;;5028534;28;20132;-59
2022/03/19 02:36:55;;;;;;;32.28;6.85;;;6.80;99.90;;;;;;5028341;28;20490;-59
2022/03/19 02:39:31;;;;;;;21.73;7.28;;;6.70;99.90;;;;;;5028326;28;20034;-60
2022/03/19 02:41:59;;;;;;;31.83;7.13;;;6.70;99.90;;;;;;5029126;28;20034;-58
2022/03/19 02:44:25;;;;;;;26.30;6.63;;;6.70;99.90;;;;;;5028873;28;20087;-59
2022/03/19 02:46:57;;;;;;;24.50;6.45;;;6.70;99.90;;;;;;5028770;28;20045;-59
2022/03/19 02:49:23;;;;;;;22.10;6.17;;;6.60;99.90;;;;;;5009663;28;20038;-60
2022/03/19 02:51:51;;;;;;;25.55;6.15;;;6.60;99.90;;;;;;5023470;28;20051;-61
2022/03/19 02:54:19;;;;;;;27.23;6.43;;;6.50;99.90;;;;;;5028654;28;20044;-60
2022/03/19 02:56:48;;;;;;;26.23;6.03;;;6.50;99.90;;;;;;5027456;28;20033;-59
2022/03/19 02:59:20;;;;;;;19.48;6.25;;;6.50;99.90;;;;;;5028389;28;20510;-59
2022/03/19 03:01:54;;;;;;;26.15;6.65;;;6.60;99.90;;;;;;5030162;28;20407;-62
2022/03/19 03:04:21;;;;;;;23.65;5.68;;;6.50;99.90;;;;;;5012732;28;20364;-59
2022/03/19 03:06:50;;;;;;;24.63;6.18;;;6.50;99.90;;;;;;5030877;28;20029;-59
2022/03/19 03:09:19;;;;;;;28.60;6.43;;;6.40;99.90;;;;;;5032128;28;20562;-60
2022/03/19 03:11:45;;;;;;;24.83;6.05;;;6.40;99.90;;;;;;5032017;28;20043;-60
2022/03/19 03:14:10;;;;;;;29.65;6.55;;;6.30;99.90;;;;;;5032793;28;20436;-61
2022/03/19 03:16:42;;;;;;;25.52;5.97;;;6.40;99.90;;;;;;5031439;28;20041;-60
2022/03/19 03:19:11;;;;;;;25.90;6.32;;;6.30;99.90;;;;;;5032446;28;20061;-58
2022/03/19 03:21:39;;;;;;;22.23;6.65;;;6.30;99.90;;;;;;5032208;28;20441;-60
2022/03/19 03:24:06;;;;;;;28.10;7.00;;;6.30;99.90;;;;;;5032660;28;20112;-59
2022/03/19 03:26:31;;;;;;;25.45;6.43;;;6.30;99.90;;;;;;5031506;28;20083;-59
2022/03/19 03:28:58;;;;;;;23.38;6.22;;;6.30;99.90;;;;;;5032453;28;20228;-59
2022/03/19 03:31:24;;;;;;;24.27;6.30;;;6.30;99.90;;;;;;5031500;28;20484;-60
2022/03/19 03:33:50;;;;;;;22.33;6.38;;;6.20;99.90;;;;;;5032410;28;20029;-60
2022/03/19 03:36:16;;;;;;;16.58;5.55;;;6.30;99.90;;;;;;5028634;28;20078;-61
2022/03/19 03:38:42;;;;;;;24.05;5.90;;;6.10;99.90;;;;;;5032443;28;20393;-60
2022/03/19 03:41:08;;;;;;;25.17;6.22;;;6.10;99.90;;;;;;5031355;28;20040;-61
2022/03/19 03:43:33;;;;;;;32.75;7.70;;;6.20;99.90;;;;;;5032317;28;20486;-60
2022/03/19 03:46:00;;;;;;;30.50;6.00;;;6.10;99.90;;;;;;5030500;28;20176;-61
2022/03/19 03:48:26;;;;;;;24.98;6.30;;;6.10;99.90;;;;;;5032593;28;20419;-61
2022/03/19 03:50:53;;;;;;;27.48;6.03;;;6.10;99.90;;;;;;5031370;28;20033;-60
2022/03/19 03:53:19;;;;;;;21.35;5.88;;;6.00;99.90;;;;;;5023724;28;20029;-58
2022/03/19 03:55:46;;;;;;;30.45;7.05;;;5.90;99.90;;;;;;5030400;28;20057;-60
2022/03/19 03:58:12;;;;;;;25.55;6.00;;;6.00;99.90;;;;;;5031413;28;20021;-60
2022/03/19 04:00:38;;;;;;;22.20;6.53;;;6.10;99.90;;;;;;5031108;28;20036;-60
2022/03/19 04:03:04;;;;;;;25.00;5.72;;;6.00;99.90;;;;;;5031468;28;20028;-60
2022/03/19 04:05:30;;;;;;;29.42;7.07;;;6.00;99.90;;;;;;5030619;28;20143;-60
2022/03/19 04:07:56;;;;;;;23.30;5.22;;;5.90;99.90;;;;;;5031954;28;20092;-58
2022/03/19 04:10:22;;;;;;;30.17;6.10;;;5.90;99.90;;;;;;5030847;28;20026;-60
2022/03/19 04:12:48;;;;;;;23.05;6.15;;;6.00;99.90;;;;;;5030805;28;20047;-60
2022/03/19 04:15:14;;;;;;;24.30;6.47;;;5.90;99.90;;;;;;5029908;28;20038;-58
2022/03/19 04:17:40;;;;;;;27.38;7.07;;;5.90;99.90;;;;;;5031681;28;20030;-60
2022/03/19 04:20:07;;;;;;;24.13;5.65;;;5.90;99.90;;;;;;5030433;28;20029;-58
2022/03/19 04:22:35;;;;;;;24.17;6.05;;;5.90;99.90;;;;;;5031218;28;20132;-57
2022/03/19 04:25:01;;;;;;;26.05;6.20;;;5.90;99.90;;;;;;5030439;28;20037;-61
2022/03/19 04:27:26;;;;;;;21.73;6.28;;;5.80;99.90;;;;;;5030256;28;20037;-61
2022/03/19 04:29:52;;;;;;;21.98;5.90;;;5.80;99.90;;;;;;5031678;28;20403;-58
2022/03/19 04:32:19;;;;;;;34.00;6.22;;;5.70;99.90;;;;;;5030588;28;20040;-60
2022/03/19 04:34:45;;;;;;;37.03;5.93;;;5.60;99.90;;;;;;5031765;28;20028;-59
2022/03/19 04:37:10;;;;;;;29.50;6.32;;;5.70;99.90;;;;;;5029599;28;20030;-59
2022/03/19 04:39:36;;;;;;;38.85;7.05;;;5.70;99.90;;;;;;5029948;28;20057;-59
2022/03/19 04:42:02;;;;;;;29.13;6.22;;;5.60;99.90;;;;;;5029738;28;20036;-59
2022/03/19 04:44:27;;;;;;;29.92;6.63;;;5.50;99.90;;;;;;5031266;28;20124;-58
2022/03/19 04:46:53;;;;;;;29.88;5.97;;;5.50;99.90;;;;;;5029899;28;20079;-60
2022/03/19 04:49:18;;;;;;;29.80;6.65;;;5.50;99.90;;;;;;5027600;28;21019;-59
2022/03/19 04:51:44;;;;;;;22.75;5.90;;;5.60;99.90;;;;;;5030122;28;20464;-58
2022/03/19 04:54:10;;;;;;;32.08;6.05;;;5.50;99.90;;;;;;5030042;28;20501;-59
2022/03/19 04:56:36;;;;;;;27.25;6.72;;;5.40;99.90;;;;;;5029286;28;20395;-57
2022/03/19 04:59:03;;;;;;;27.70;6.22;;;5.40;99.90;;;;;;5029746;28;20140;-58
2022/03/19 05:01:31;;;;;;;22.95;5.80;;;5.40;99.90;;;;;;5030160;28;20022;-59
2022/03/19 05:03:57;;;;;;;33.65;6.45;;;5.30;99.90;;;;;;5030259;28;20192;-60
2022/03/19 05:06:22;;;;;;;29.27;6.53;;;5.20;99.90;;;;;;5029392;28;20136;-60
2022/03/19 05:11:12;;;;;;;25.25;6.30;;;5.20;99.90;;;;;;5029690;28;20029;-58
2022/03/19 05:11:37;;;;;;;25.15;6.30;;;5.20;99.90;;;;;;5020183;28;20037;-58
2022/03/19 05:14:06;;;;;;;29.58;6.88;;;5.10;99.90;;;;;;5029465;28;20107;-60
2022/03/19 05:16:32;;;;;;;25.90;6.88;;;5.10;99.90;;;;;;5029068;28;20025;-57
2022/03/19 05:18:58;;;;;;;27.30;6.80;;;5.00;99.90;;;;;;5028674;28;20022;-58
2022/03/19 05:21:24;;;;;;;28.27;6.60;;;5.10;99.90;;;;;;5029326;28;20497;-53
2022/03/19 05:23:49;;;;;;;23.20;5.60;;;5.10;99.90;;;;;;5029842;28;20037;-54
2022/03/19 05:26:15;;;;;;;32.30;6.18;;;5.10;99.90;;;;;;5027914;28;20099;-54
2022/03/19 05:28:41;;;;;;;40.03;6.18;;;5.10;99.90;;;;;;5030178;28;20479;-55
2022/03/19 05:31:08;;;;;;;26.25;6.43;;;5.20;99.90;;;;;;5028876;28;20042;-57
2022/03/19 05:36:18;;;;;;;23.58;5.90;;;5.20;99.90;;;;;;5012935;28;20441;-57
2022/03/19 05:38:44;;;;;;;32.67;5.40;;;5.10;99.90;;;;;;5028975;28;20033;-55
2022/03/19 05:41:10;;;;;;;26.08;5.55;;;5.10;99.90;;;;;;5023475;28;20071;-55
2022/03/19 05:43:36;;;;;;;24.70;6.13;;;5.20;99.90;;;;;;5010804;28;20403;-56
2022/03/19 05:46:02;;;;;;;25.33;5.25;;;5.10;99.90;;;;;;5028752;28;20026;-53
2022/03/19 05:48:28;;;;;;;29.48;5.88;;;5.10;99.90;;;;;;5030123;28;20021;-55
2022/03/19 05:50:54;;;;;;;25.85;5.80;;;5.10;99.90;;;;;;5029357;28;20029;-56
2022/03/19 05:53:19;;;;;;;25.45;5.85;;;5.10;99.90;;;;;;5029849;28;20052;-54
2022/03/19 05:55:45;;;;;;;28.42;5.30;;;5.10;99.90;;;;;;5028947;28;20482;-55
2022/03/19 05:58:11;;;;;;;25.67;5.40;;;5.10;99.90;;;;;;5029474;28;20105;-60
2022/03/19 06:00:37;;;;;;;26.52;5.63;;;5.10;99.90;;;;;;5029377;28;20026;-53
2022/03/19 06:03:02;;;;;;;32.90;5.40;;;5.10;99.90;;;;;;5027989;28;20037;-55
2022/03/19 06:05:28;;;;;;;26.50;5.70;;;5.20;99.90;;;;;;5029342;28;20033;-55
2022/03/19 06:07:54;;;;;;;26.15;5.72;;;5.20;99.90;;;;;;5029421;28;20029;-56
2022/03/19 06:10:20;;;;;;;25.85;5.57;;;5.20;99.90;;;;;;5029616;28;20179;-53
2022/03/19 06:12:46;;;;;;;31.98;5.55;;;5.30;99.90;;;;;;5028322;28;20035;-60
2022/03/19 06:15:12;;;;;;;21.70;4.97;;;5.30;99.90;;;;;;5025708;28;20103;-53
2022/03/19 06:17:38;;;;;;;26.25;5.72;;;5.30;99.90;;;;;;5010529;28;20017;-55
2022/03/19 06:20:04;;;;;;;18.38;5.18;;;5.30;99.90;;;;;;5024874;28;20060;-56
2022/03/19 06:22:30;;;;;;;26.50;5.53;;;5.30;99.90;;;;;;5030237;28;20079;-55
2022/03/19 06:24:56;;;;;;;29.90;5.25;;;5.30;99.90;;;;;;5028877;28;20416;-60
2022/03/19 06:27:22;;;;;;;25.92;4.88;;;5.40;99.90;;;;;;5030391;28;20472;-53
2022/03/19 06:29:48;;;;;;;23.25;4.88;;;5.30;99.90;;;;;;5029408;28;20683;-53
2022/03/19 06:32:17;;;;;;;21.20;4.80;;;5.40;99.90;;;;;;5029862;28;20117;-54
2022/03/19 06:34:43;;;;;;;22.45;5.25;;;5.40;99.90;;;;;;5029279;28;20029;-53
2022/03/19 06:37:20;;;;;;;22.98;4.93;;;5.40;99.90;;;;;;5031412;28;20396;-54
2022/03/19 06:39:54;;;;;;;30.98;5.10;;;5.40;99.90;;;;;;5034079;28;20029;-56
2022/03/19 06:42:21;;;;;;;22.58;4.82;;;5.50;99.90;;;;;;5014924;28;20875;-56
2022/03/19 06:44:46;;;;;;;16.08;4.68;;;5.50;99.90;;;;;;5032356;28;20124;-56
2022/03/19 06:47:12;;;;;;;28.10;4.65;;;5.50;99.90;;;;;;5032152;28;20108;-56
2022/03/19 06:49:38;;;;;;;26.42;4.68;;;5.50;99.90;;;;;;5033569;28;20033;-53
2022/03/19 06:52:04;;;;;;;24.65;4.53;;;5.60;99.90;;;;;;5032932;28;20025;-55
2022/03/19 06:54:29;;;;;;;25.40;5.00;;;5.60;99.90;;;;;;5033272;28;20124;-53
2022/03/19 06:56:55;;;;;;;21.02;5.07;;;5.60;99.90;;;;;;5031510;28;20104;-54
2022/03/19 06:59:21;;;;;;;28.23;5.18;;;5.60;99.90;;;;;;5030474;28;20124;-55
2022/03/19 07:01:48;;;;;;;27.65;4.75;;;5.70;99.90;;;;;;5033294;28;20120;-58
2022/03/19 07:04:13;;;;;;;24.42;4.15;;;5.70;99.90;;;;;;5031935;28;20099;-58
2022/03/19 07:06:39;;;;;;;22.05;4.63;;;5.80;99.90;;;;;;5032457;28;20033;-58
2022/03/19 07:09:05;;;;;;;18.45;3.90;;;5.80;99.90;;;;;;5031998;28;20399;-58
2022/03/19 07:11:31;;;;;;;15.43;4.50;;;5.90;99.90;;;;;;5033153;28;20537;-56
2022/03/19 07:13:57;;;;;;;28.95;4.47;;;5.90;99.90;;;;;;5031952;28;20033;-55
2022/03/19 07:16:23;;;;;;;18.55;4.15;;;6.00;99.90;;;;;;5032046;28;20022;-56
2022/03/19 07:18:49;;;;;;;17.17;5.38;;;6.00;99.90;;;;;;5032506;28;20099;-56
2022/03/19 07:21:16;;;;;;;24.67;5.20;;;6.00;99.90;;;;;;5032756;28;20420;-57
2022/03/19 07:23:42;;;;;;;24.20;4.47;;;6.10;99.90;;;;;;5032319;28;20037;-57
2022/03/19 07:26:08;;;;;;;22.77;4.82;;;6.10;99.90;;;;;;5031562;28;20483;-54
2022/03/19 07:28:33;;;;;;;22.98;4.75;;;6.10;99.90;;;;;;5031808;28;20040;-55
2022/03/19 07:31:00;;;;;;;23.92;5.10;;;6.20;99.90;;;;;;5032148;28;20029;-60
2022/03/19 07:33:27;;;;;;;22.63;4.43;;;6.20;99.90;;;;;;5030697;28;20072;-56
2022/03/19 07:35:53;;;;;;;17.48;4.88;;;6.30;99.90;;;;;;5032250;28;20025;-58
2022/03/19 07:38:19;;;;;;;24.48;4.90;;;6.40;99.90;;;;;;5031340;28;20421;-54
2022/03/19 07:43:31;;;;;;;21.40;4.00;;;6.50;99.90;;;;;;5031934;28;20052;-54
2022/03/19 07:45:57;;;;;;;14.55;3.72;;;6.60;99.90;;;;;;5031442;28;20167;-54
2022/03/19 07:48:22;;;;;;;27.13;4.07;;;6.60;99.90;;;;;;5029105;28;20140;-55
2022/03/19 07:50:48;;;;;;;22.23;4.32;;;6.60;99.90;;;;;;5032689;28;20078;-55
2022/03/19 07:53:15;;;;;;;21.02;4.78;;;6.70;99.90;;;;;;5027597;28;20125;-59
2022/03/19 07:55:40;;;;;;;23.35;4.57;;;6.70;99.90;;;;;;5028493;28;20064;-54
2022/03/19 07:58:07;;;;;;;20.75;4.78;;;6.70;99.90;;;;;;5031960;28;20463;-59
2022/03/19 08:00:32;;;;;;;25.73;4.93;;;6.80;99.90;;;;;;5023726;28;20483;-58
2022/03/19 08:02:58;;;;;;;24.63;4.45;;;6.80;99.90;;;;;;5048871;28;20033;-58
2022/03/19 08:05:24;;;;;;;30.67;4.50;;;6.90;99.90;;;;;;5033908;28;20033;-59
2022/03/19 08:07:51;;;;;;;17.75;4.03;;;6.90;99.90;;;;;;5030898;28;20192;-58
2022/03/19 08:10:19;;;;;;;17.80;3.70;;;7.00;99.90;;;;;;5044432;28;20056;-58
2022/03/19 08:12:45;;;;;;;16.25;4.00;;;7.10;99.90;;;;;;5029628;28;20484;-56
2022/03/19 08:15:12;;;;;;;18.05;4.50;;;7.20;99.90;;;;;;5025131;28;20484;-55
2022/03/19 08:17:42;;;;;;;17.48;4.30;;;7.30;99.90;;;;;;5019893;28;20336;-55
2022/03/19 08:20:08;;;;;;;17.45;4.03;;;7.30;99.90;;;;;;5031018;28;20380;-54
2022/03/19 08:22:34;;;;;;;23.73;7.13;;;7.40;99.90;;;;;;5021475;28;20120;-56
2022/03/19 08:25:01;;;;;;;48.88;13.45;;;7.50;99.90;;;;;;5018440;28;20242;-57
2022/03/19 08:27:27;;;;;;;20.52;4.18;;;7.60;99.90;;;;;;5014543;28;20046;-56
2022/03/19 08:29:54;;;;;;;12.23;3.45;;;7.60;99.90;;;;;;5016313;28;20508;-59
2022/03/19 08:32:23;;;;;;;21.30;4.03;;;7.70;99.90;;;;;;5013352;28;20037;-54
2022/03/19 08:34:49;;;;;;;18.70;3.78;;;7.80;99.90;;;;;;5015149;28;20495;-56
2022/03/19 08:37:15;;;;;;;25.35;4.35;;;7.80;99.90;;;;;;4999236;28;20650;-57
2022/03/19 08:42:25;;;;;;;15.93;4.03;;;8.00;99.90;;;;;;5020174;28;20076;-55
2022/03/19 08:44:51;;;;;;;18.45;4.22;;;8.10;99.90;;;;;;5012260;28;20022;-55
2022/03/19 08:47:19;;;;;;;21.50;4.25;;;8.10;99.90;;;;;;5029034;28;20037;-56
2022/03/19 08:49:44;;;;;;;15.88;3.83;;;8.20;99.90;;;;;;5025681;28;20544;-56
2022/03/19 08:52:10;;;;;;;25.60;4.68;;;8.30;99.90;;;;;;5027725;28;20132;-54
2022/03/19 08:54:36;;;;;;;22.90;4.30;;;8.40;99.90;;;;;;5017320;28;20026;-55
2022/03/19 08:57:02;;;;;;;15.63;3.72;;;8.40;99.90;;;;;;5017332;28;20159;-54
2022/03/19 08:59:29;;;;;;;22.70;4.30;;;8.50;99.90;;;;;;5028967;28;20144;-54
2022/03/19 09:01:54;;;;;;;14.85;3.80;;;8.70;99.90;;;;;;5029081;28;20060;-55
2022/03/19 09:04:20;;;;;;;17.52;3.22;;;8.80;99.90;;;;;;5028046;28;20495;-56
2022/03/19 09:06:46;;;;;;;24.27;6.40;;;8.90;99.90;;;;;;5019447;28;20044;-57
2022/03/19 09:09:14;;;;;;;17.52;4.28;;;8.90;99.90;;;;;;5016227;28;20611;-55
2022/03/19 09:11:40;;;;;;;16.50;4.25;;;9.00;99.90;;;;;;5021186;28;20120;-56
2022/03/19 09:14:08;;;;;;;19.80;3.90;;;9.10;99.90;;;;;;5018663;28;20034;-54
2022/03/19 09:16:34;;;;;;;17.83;3.25;;;9.30;99.90;;;;;;5023150;28;21584;-57
2022/03/19 09:19:00;;;;;;;15.95;3.85;;;9.40;99.90;;;;;;5013390;28;20048;-57
2022/03/19 09:21:29;;;;;;;22.67;4.20;;;9.40;99.90;;;;;;5014941;28;20041;-55
2022/03/19 09:23:55;;;;;;;24.27;8.55;;;9.50;99.90;;;;;;5015517;28;20041;-57
2022/03/19 09:26:21;;;;;;;24.17;6.85;;;9.80;99.90;;;;;;5013049;28;20022;-59
2022/03/19 09:28:47;;;;;;;33.42;7.53;;;9.90;99.90;;;;;;4996308;28;20029;-54
2022/03/19 09:31:16;;;;;;;17.38;3.33;;;10.00;99.90;;;;;;5021280;28;20021;-53
2022/03/19 09:33:45;;;;;;;15.00;3.40;;;10.10;99.90;;;;;;5016522;28;20017;-56
2022/03/19 09:36:12;;;;;;;19.27;3.58;;;9.90;99.90;;;;;;5013772;28;20534;-56
2022/03/19 09:38:39;;;;;;;16.52;3.50;;;9.80;99.90;;;;;;5012117;28;20032;-56
2022/03/19 09:41:06;;;;;;;14.23;3.17;;;9.80;99.90;;;;;;5015085;28;20029;-57
2022/03/19 09:43:31;;;;;;;24.05;5.35;;;9.90;99.90;;;;;;5012927;28;20198;-56
2022/03/19 09:45:57;;;;;;;18.77;4.68;;;10.20;99.90;;;;;;5024462;28;20437;-57
2022/03/19 09:48:23;;;;;;;13.07;3.28;;;10.30;99.90;;;;;;5014706;28;20044;-57
2022/03/19 09:50:54;;;;;;;19.33;4.03;;;10.50;99.90;;;;;;5014387;28;20030;-57
2022/03/19 09:53:24;;;;;;;10.35;2.60;;;10.50;99.90;;;;;;5011407;28;20040;-58
2022/03/19 09:55:53;;;;;;;15.73;2.95;;;10.60;99.90;;;;;;5013356;28;20657;-52
2022/03/19 09:58:19;;;;;;;12.07;2.60;;;10.70;99.90;;;;;;5008900;28;20048;-57
2022/03/19 10:00:45;;;;;;;13.75;2.83;;;10.90;99.90;;;;;;5014395;28;20044;-59
2022/03/19 10:03:12;;;;;;;11.02;2.05;;;10.90;99.90;;;;;;5029409;28;20030;-54
2022/03/19 10:08:37;;;;;;;11.85;2.38;;;10.80;99.90;;;;;;5013240;28;20052;-55
2022/03/19 10:11:07;;;;;;;14.65;2.70;;;11.00;99.90;;;;;;5018593;28;20483;-55
2022/03/19 10:13:33;;;;;;;9.75;2.45;;;11.20;99.90;;;;;;5014041;28;20128;-59
2022/03/19 10:15:58;;;;;;;10.57;2.55;;;11.20;99.90;;;;;;5021341;28;20025;-59
2022/03/19 10:18:29;;;;;;;12.52;3.63;;;11.30;99.90;;;;;;5011603;28;20509;-57
2022/03/19 10:20:59;;;;;;;9.65;2.55;;;11.30;99.90;;;;;;5012533;28;20082;-57
2022/03/19 10:23:33;;;;;;;10.32;2.40;;;11.50;99.90;;;;;;5015125;28;20033;-57
2022/03/19 10:25:58;;;;;;;8.40;2.28;;;11.60;99.90;;;;;;5012075;28;20365;-57
2022/03/19 10:28:31;;;;;;;10.10;2.40;;;11.60;99.90;;;;;;5012935;28;20037;-57
2022/03/19 10:30:57;;;;;;;6.38;2.40;;;11.70;99.90;;;;;;5012777;28;20491;-57
2022/03/19 10:33:27;;;;;;;10.55;2.20;;;11.60;99.90;;;;;;4999810;28;20069;-59
2022/03/19 10:36:08;;;;;;;10.48;2.28;;;11.80;99.90;;;;;;5014678;28;20046;-58
2022/03/19 10:38:46;;;;;;;7.95;2.20;;;11.80;99.90;;;;;;5021132;28;20025;-56
2022/03/19 10:41:17;;;;;;;9.15;2.05;;;12.10;99.90;;;;;;5020243;28;20034;-57
2022/03/19 10:43:47;;;;;;;12.38;2.38;;;12.10;99.90;;;;;;5016812;28;20087;-56
2022/03/19 10:46:20;;;;;;;6.15;1.77;;;12.10;99.90;;;;;;5017678;28;20042;-58
2022/03/19 10:48:52;;;;;;;9.85;1.75;;;12.10;99.90;;;;;;5013059;28;20141;-57
2022/03/19 10:51:20;;;;;;;12.05;2.63;;;12.20;99.90;;;;;;5025934;28;20044;-57
2022/03/19 10:53:47;;;;;;;8.13;1.95;;;12.40;99.90;;;;;;5013875;28;20049;-55
2022/03/19 10:56:15;;;;;;;7.93;2.08;;;12.70;99.90;;;;;;5027294;28;20115;-54
2022/03/19 10:58:40;;;;;;;6.03;1.92;;;12.80;99.90;;;;;;5024864;28;20021;-55
2022/03/19 11:01:07;;;;;;;7.85;2.17;;;12.90;99.90;;;;;;5033687;28;20044;-56
2022/03/19 11:03:37;;;;;;;9.38;2.00;;;12.90;99.60;;;;;;5031084;28;20057;-56
2022/03/19 11:06:07;;;;;;;6.22;1.90;;;13.00;99.90;;;;;;5033550;28;20034;-55
2022/03/19 11:08:43;;;;;;;12.35;3.00;;;12.90;99.60;;;;;;5029385;28;20380;-56
2022/03/19 11:11:28;;;;;;;12.77;1.98;;;13.10;98.60;;;;;;5028915;28;20021;-56
2022/03/19 11:13:57;;;;;;;9.65;2.15;;;13.10;96.50;;;;;;5028898;28;20044;-56
2022/03/19 11:16:25;;;;;;;6.38;2.15;;;13.20;95.60;;;;;;5028439;28;20037;-55
2022/03/19 11:18:52;;;;;;;5.15;1.90;;;13.00;95.60;;;;;;5029183;28;20113;-57
2022/03/19 11:21:19;;;;;;;6.90;1.75;;;13.00;96.00;;;;;;5027134;28;20033;-55
2022/03/19 11:23:54;;;;;;;6.68;1.55;;;12.90;94.40;;;;;;5032451;28;20029;-57
2022/03/19 11:26:24;;;;;;;7.90;2.40;;;12.90;94.60;;;;;;5031737;28;20529;-55
2022/03/19 11:28:51;;;;;;;9.60;2.25;;;13.10;94.80;;;;;;5032994;28;20040;-56
2022/03/19 11:31:25;;;;;;;7.78;2.50;;;13.00;95.30;;;;;;5032757;28;20106;-55
2022/03/19 11:33:51;;;;;;;8.15;1.98;;;13.20;94.90;;;;;;5033271;28;20087;-55
2022/03/19 11:36:17;;;;;;;7.63;2.25;;;13.20;92.70;;;;;;5031871;28;20034;-56
2022/03/19 11:38:53;;;;;;;7.20;2.10;;;13.30;92.60;;;;;;5031394;28;20030;-56
2022/03/19 11:41:25;;;;;;;7.93;1.70;;;13.40;93.90;;;;;;5032226;28;20105;-55
2022/03/19 11:44:11;;;;;;;8.70;2.53;;;13.50;91.90;;;;;;5032511;28;20037;-55
2022/03/19 11:46:58;;;;;;;5.95;2.10;;;14.00;91.90;;;;;;5031590;28;20037;-56
2022/03/19 11:50:00;;;;;;;8.18;2.35;;;14.10;89.50;;;;;;5032313;28;20021;-55
2022/03/19 11:52:46;;;;;;;5.13;1.80;;;14.20;88.20;;;;;;5010558;28;20040;-56
2022/03/19 11:55:22;;;;;;;4.78;1.75;;;14.20;86.80;;;;;;5030884;28;20064;-55
2022/03/19 11:57:57;;;;;;;6.68;2.42;;;14.60;83.60;;;;;;5032282;28;20560;-55
2022/03/19 12:00:32;;;;;;;8.13;1.65;;;15.30;83.30;;;;;;5032112;28;20043;-57
2022/03/19 12:03:24;;;;;;;10.27;3.05;;;16.00;78.50;;;;;;5032054;28;20025;-55
2022/03/19 12:05:53;;;;;;;6.28;2.28;;;16.60;77.30;;;;;;5031196;28;20428;-55
2022/03/19 12:08:22;;;;;;;9.55;2.65;;;16.10;76.10;;;;;;5031218;28;20042;-54
2022/03/19 12:10:59;;;;;;;7.25;2.17;;;14.90;80.70;;;;;;5031930;28;20029;-56
2022/03/19 12:13:28;;;;;;;13.43;2.53;;;14.70;83.20;;;;;;5031898;28;20029;-57
2022/03/19 12:15:59;;;;;;;8.80;2.42;;;14.30;90.40;;;;;;5030329;28;20108;-55
2022/03/19 12:18:34;;;;;;;6.60;2.25;;;15.20;91.30;;;;;;5013770;28;20025;-58
2022/03/19 12:21:14;;;;;;;7.35;2.40;;;15.50;86.70;;;;;;5031372;28;20032;-57
2022/03/19 12:23:49;;;;;;;5.75;2.05;;;15.60;87.60;;;;;;5031341;28;20025;-56
2022/03/19 12:26:16;;;;;;;6.38;2.05;;;16.60;80.90;;;;;;5030688;28;20388;-54
2022/03/19 12:28:43;;;;;;;6.25;2.10;;;16.70;77.20;;;;;;5031283;28;20036;-57
2022/03/19 12:31:15;;;;;;;5.53;2.17;;;16.60;74.50;;;;;;5031196;28;20041;-57
2022/03/19 12:33:43;;;;;;;7.93;1.98;;;15.90;76.00;;;;;;5030575;28;20129;-59
2022/03/19 12:36:20;;;;;;;4.40;1.50;;;16.50;77.10;;;;;;5030494;28;20399;-57
2022/03/19 12:38:49;;;;;;;7.85;2.22;;;17.40;69.50;;;;;;5031110;28;20026;-58
2022/03/19 12:41:31;;;;;;;7.82;2.50;;;16.80;68.10;;;;;;5030843;28;20064;-56
2022/03/19 12:43:58;;;;;;;6.00;2.00;;;16.80;67.80;;;;;;5030874;28;20083;-58
2022/03/19 12:46:30;;;;;;;9.30;3.25;;;17.30;68.90;;;;;;5030762;28;20045;-57
2022/03/19 12:49:08;;;;;;;8.75;2.30;;;17.90;64.40;;;;;;5030810;28;20384;-58
2022/03/19 12:51:37;;;;;;;8.80;2.30;;;18.80;60.20;;;;;;5031091;28;20033;-57
2022/03/19 12:54:24;;;;;;;5.35;2.00;;;18.40;60.10;;;;;;5030278;28;20034;-57
2022/03/19 12:56:51;;;;;;;7.95;2.45;;;19.10;59.40;;;;;;5029791;28;20112;-56
2022/03/19 12:59:21;;;;;;;7.43;2.17;;;20.00;59.10;;;;;;5030457;28;20045;-58
2022/03/19 13:01:48;;;;;;;6.95;2.80;;;19.60;58.00;;;;;;5031117;28;20155;-58
2022/03/19 13:04:25;;;;;;;7.10;2.63;;;19.10;59.50;;;;;;5030450;28;20104;-58